Strona główna
METAR-TAF:

METAR-TAF

Lotnisko :

Port lotniczy Altamira

Altamira, Pará, Brazylia

Szerokość geograficzna: 03-12S, Długość geograficzna: 052-12W, wysokość: 74 m

Aktualna obserwacja pogody

Raport powstał 1 godzina i 24 minut temu, godzina 11:00 UTC
Wiatr 3 kt od północny wschód
Temperatura 26°C
Wilgotność 94%
Ciśnienie 1013 hPa
Widzialność 10 km lub więcej
Rozproszone chmury na wysokości 1200 ft

METAR: SBHT 031100Z 04003KT 9999 SCT012 26/25 Q1013

czas: 09:24 (12:24 UTC)


TAF: brakujący

Obserwacja i prognoza pogody dla ponad 4000 lotnisk (raport METAR i TAF).

Dostępne stacje oznaczono żółtymi i czerwonymi punktami na mapie.

Najedź kursorem aby zobaczyć nazwę stacji.

Kliknij aby zobaczyć obserwacje i prognozy pogody.

Aby zmienić mapę: kliknij na zielony przycisk z czarnym krzyżykiem, aby powiększyć; na zielony przycisk z myślnikiem, aby pomniejszyć; na zielone strzałki, aby przejść do map sąsiednich.


METAR-TAF: